Airfield :
LOGIN :

Register | Disclaimer

   EN    FR    IT 

 










Legend :    VFR   Marginal VFR   IFR   Intensive IFR   Very Intensive IFR
Visi :
Ceiling :
>= 8 km
>= 3000ft
5 to 8 km
1000 to 3000 ft
1500m to 5 km
500 to 1000 ft
800 to 1500m
200 to 500 ft
< 800m
< 200 ft
Symbols :   Thunderstorms  Fog  Heavy snow  Heavy precipitations  Wind > 20 kt
SIGMETs :     Misc.  Thunderstorms  Icing  Turbulence  Mountain Waves  Volcanic Ashes






- Airport Elevation : 348 ft
- IATA code : STN


EGSS - London Stansted

CURRENT METAR :
  • 030720Z 25006KT CAVOK 15/12 Q1019

EXPIRED METARs :
  • 030650Z AUTO 25006KT 9999 NCD 14/11 Q1019
  • 030620Z 28004KT 230V330 CAVOK 14/11 Q1018
  • 030550Z 26003KT 240V300 CAVOK 13/11 Q1018
  • 030520Z AUTO 24004KT 9999 NCD 12/11 Q1018
  • 030450Z AUTO 26003KT 9999 NCD 11/10 Q1018

TAF TAF EGSS
Valid from the 03 at 06:00 until the 04 at 12:00 UTC


030620Z 0306/0412 25005KT 9999 SCT040
PROB30
TEMPO 0310/0319 8000 SHRA
BECMG 0315/0318 32010KT
BECMG 0403/0406 26005KT
ATIS : +44 1279 669 325



MET'MAP, your aeronautical weather chart ! - Copyright ORBIFLY December 2007 - Disclaimer

ORBIFLY MET'MAP TEAM :

Programming & Development : Alexandra Zaïnal
Original concept : Baudouin d'Aumeries
Technical & hardware support : Manuel Goepfert
Assistance : Marc-Olivier Méhu




SOURCES & CREDITS :

   NOAA